Annis, ID

12:36 PM MDT on September 30, 2014 (GMT -0600)
ITD Thornton ID US | Change Station
CLOSE
Current Station
Personal Weather Station
Location: Rexburg, ID
Elevation: 4873 ft
Nearby Weather Stations

Elev 4873 ft 43.76 °N, 111.85 °W | Updated 51 minutes ago

Overcast
Overcast
53 °F
Feels Like 53 °F
N
7
Wind Variable Wind from SSW
Gusts 11.0 mph

Today
High -- | Low -- °F
--% Chance of Precip.
Yesterday
High -- | Low -- °F
Precip. -- in
7:24 AM 7:10 PM
Waxing Crescent, 39% visible
Pressure 29.90 in
Visibility 10.0 miles
Clouds Scattered Clouds 1700 ft
Mostly Cloudy 3400 ft
Overcast 5000 ft
Dew Point 47 °F
Humidity 82%
Rainfall 0.02 in
Snow Depth 1 in , 0 in , 1 in
UV 2 out of 12
Pollen 6.10 out of 12
PM2.5 Good
Flu Activity Not available.
SPECI KRXE 301807Z AUTO 23014G18KT 10SM SCT017 BKN034 OVC050 11/08 A2990 RMK AO2 T01110078

More Conditions Fewer Conditions

Pressure 29.90 in
Visibility 10.0 miles
Clouds Scattered Clouds 1700 ft
Mostly Cloudy 3400 ft
Overcast 5000 ft
Dew Point 47 °F
Humidity 82%
Rainfall 0.02 in
Snow Depth 1 in , 0 in , 1 in
UV 2 out of 12
Pollen 6.10 out of 12
PM2.5 Good
Flu Activity Not available.
SPECI KRXE 301807Z AUTO 23014G18KT 10SM SCT017 BKN034 OVC050 11/08 A2990 RMK AO2 T01110078

More Conditions Fewer Conditions

10-Day Weather Forecast

Almanac

Astronomy

Sep. 30, 2014 Rise Set
Actual Time 7:24 AM MDT 7:10 PM MDT
Civil Twilight 6:55 AM MDT 7:38 PM MDT
Nautical Twilight 6:22 AM MDT 8:11 PM MDT
Astronomical Twilight 5:48 AM MDT 8:45 PM MDT
Moon 1:44 PM MDT 11:35 PM MDT
Length of Visible Light 12h 43m
Length of Day
11h 46m
Tomorrow will be 2m 57s shorter.
Waxing Crescent, 39% of the Moon is Illuminated
Today
Waxing Crescent
Oct 1
First Quarter
Oct 8
Full
Oct 15
Last Quarter
Oct 23
New

Today's Extremes

State Highs State Lows

Community

WunderPhotos

Upload Photos

1,757,714 photos uploaded!

Nearby

Air Quality

  Air Quality AQ Index Pollutant
Yesterday Good
PM2.5
Current Good
PM2.5
Tuesday Good
PM2.5
Wednesday Good
PM2.5
Thursday Good
PM2.5

Snow Depth

Station Depth Elevation
South Mountain 1 in 6500 ft
Hilts Creek 0 in 8000 ft
Swede Peak 1 in 7640 ft
Franklin Basin 2 in 8170 ft
Hemlock Butte 1 in 5810 ft

Earthquake Activity

City Distance Mag. Time & Date
No recent earthquake activity has been reported nearby.
Minimum magnitude displayed is 2.5.

Coastal Water Temperatures

Place Temperature
No Stations Reporting

Nearby Weather Stations